Etusivu
METAR-TAF:

METAR-TAF

Lentoasemat :

Desert Rock Airport

Mercury, Nevada, Yhdysvallat

Leveyspiiri: 36-37-14N, Pituuspiiri: 116-01-40W, korkeus merenpinnasta: 1007 m

Tämänhetkinen sää

Tämä raportti tehtiin 3 tuntia ja 49 minuuttia sitten, kello 19.53 UTC
Tuuli 6 kn eri suunnista puuskistuen 15 kn:hen
Lämpötila 10°C
Kosteus 32%
Ilmanpaine 1015 hPa
Näkyvyys: 16.1 km
Hajanaisia pilviä 7500 ft:n korkeudessa

METAR: KDRA 151953Z AUTO VRB06G15KT 10SM SCT075 10/M06 A2997 RMK AO2 SLP134 T01001061

Aika: 15:42 (23:42 UTC)


TAF: puuttuu

Säähavainnot ja -ennusteet yli 4000 lentoasemalta (METAR- ja TAF-raportit).

Käytössä olevat sääasemat on merkitty karttaan keltaisilla ja punaisilla pisteillä.

Aseta hiiri pisteen päälle nähdäksesi sääaseman nimen.

Klikkaa sitten nähdäksesi säähavainnot ja -ennusteet.

Kartan vaihtaminen: klikkaa mustalla rastilla varustettuja vihreitä pisteitä, niin voit zoomata sisään; viivalla varustettua vihreää pistettä, niin voit zoomata ulos tai vihreitä nuolia, niin pääset viereisille kartoille.


METAR-TAF: